Newdale, ID (83436)

10:27 AM MST on February 27, 2017 (GMT -0700)
Wilford area | | Change Station
Active Advisory: Winter Weather Advisory

Elev 4948 ft 43.92 °N, 111.68 °W | Updated 23 seconds ago

Mostly Cloudy
Mostly Cloudy
25.2 °F
Feels Like 25 °F
N
0.0
Wind Variable Wind from NNW
Gusts 0.0 mph

Today
High -- | Low -- °F
--% Chance of Precip.
Yesterday
High -- | Low -- °F
Precip. -- in
Pressure 29.62 in
Visibility 10.0 miles
Clouds Overcast 900 ft
Windchill 25 °F
Dew Point 16 °F
Humidity 69%
Rainfall 0.00 in
Snow Depth Not available.
7:05 AM 6:12 PM
New Moon, 2% visible
SPECI KRXE 271723Z AUTO 24007KT 10SM OVC009 M05/M06 A2962 RMK AO2 T10501061
Pressure 29.62 in
Visibility 10.0 miles
Clouds Overcast 900 ft
Windchill 25 °F
Dew Point 16 °F
Humidity 69%
Rainfall 0.00 in
Snow Depth Not available.
7:05 AM 6:12 PM
New Moon, 2% visible
SPECI KRXE 271723Z AUTO 24007KT 10SM OVC009 M05/M06 A2962 RMK AO2 T10501061

Get Your Daily Forecast Email!

Thanks for signing up!

Be on the lookout for a verification email in your inbox.

You'll start receiving the daily forecast at 8 AM.

×

10-Day Weather Forecast

Almanac

Astronomy

Feb. 27, 2017 Rise Set
Actual Time
Civil Twilight
Nautical Twilight
Astronomical Twilight
Moon
Length of Visible Light
Length of Day
Tomorrow will be .
, % of the Moon is Illuminated

Today's Extremes

State Highs State Lows

Community

WunderPhotos

Upload Photos

1,962,540 photos uploaded!

WunderBlog® & News

Nearby

Air Quality

  Air Quality AQ Index Pollutant
Not available.

Snow Depth

Station Depth Elevation

Earthquake Activity

City Distance Mag. Time & Date
Minimum magnitude displayed is 2.5.

Coastal Water Temperatures

Place Temperature

Stations

Nearby Weather Stations

Station Location Temp. Windchill Dew Point Humidity Wind Precip. Elev Updated Type
                   

Watches & Warnings

Winter Weather Advisory
Issued: 2:45 AM MST Feb. 27, 2017 – National Weather Service

... Winter Weather Advisory remains in effect until 6 PM MST this
evening...

* impacts... difficult travel due to slick roads is expected
especially on any passes and lesser traveled roads above 6500
feet near the Wyoming border.

* Timing... occasional snowfall will continue through the rest of today.

* Snow accumulations... additional 2 to 4 inches above 6500ft for
locations mentioned above, with less than 2 inches elsewhere.

* Confidence... moderate on snow amounts and timing.

* Locations... mountains from south of Island Park through Teton
County.

Precautionary/preparedness actions...

A Winter Weather Advisory for snow and blowing snow means that
periods of snow and blowing snow may cause travel difficulties.
Be prepared for snow covered roads and limited visibilities, and
remember to take it slow in the snow.